KLOU

Bowman Field Airport

Louisville, Kentucky, USA
METAR KLOU 151453Z 18007KT 10SM FEW075 BKN090 28/20 A3005 RMK AO2 SLP171 T02780200 51007
Observed Flight Rules
Aug-15 @ 14:53 UTC (8 minutes ago) Visual Flight Rules
Wind Visibility Clouds
180° at 7 knots 10 miles
  • Few at 7,500' AGL
  • Broken at 9,000' AGL
Temperatures Readings
Current 28°C / 82°F
Dewpoint 20°C / 68°F
Humidity 62%
Altimeter 30.05" Hg
Pressure 1017.1 hPa
Elevation 164
METAR KLOU 151453Z 18007KT 10SM FEW075 BKN090 28/20 A3005 RMK AO2 SLP171 T02780200 51007
Observed Flight Rules
Aug-15 @ 14:53 UTC
(8 minutes ago)
VFR
Wind Visibility
180° at 7 knots 10 miles
Clouds
  • Few at 7,500' AGL
  • Broken at 9,000' AGL
Temperature Dewpoint
28°C / 82°F 20°C / 68°F
Humidity Altimeter Pressure
62% 30.05" Hg 1017.1 hPa